Time;durP1;ratioP1;P1;durP2;ratioP2;P2;SDS_P1;SDS_P2;PMS_P1;PMS_P2;Temp;Humidity;BMP_temperature;BMP_pressure;BME280_temperature;BME280_humidity;BME280_pressure;Samples;Min_cycle;Max_cycle;Signal;HPM_P1;HPM_P2
2020/12/10 00:00:05;;;;;;;18.10;10.77;;;2.80;96.30;;;;;;4991655;28;20992;-76
2020/12/10 00:02:30;;;;;;;15.97;10.37;;;2.80;96.30;;;;;;4992683;28;20343;-77
2020/12/10 00:04:56;;;;;;;14.43;10.07;;;2.80;96.30;;;;;;5008333;28;20452;-76
2020/12/10 00:07:22;;;;;;;18.60;12.17;;;2.70;96.30;;;;;;4993113;28;20180;-76
2020/12/10 00:09:52;;;;;;;18.70;10.97;;;2.70;96.30;;;;;;4993094;28;20228;-76
2020/12/10 00:12:18;;;;;;;18.67;13.10;;;2.70;96.30;;;;;;4991360;28;20432;-76
2020/12/10 00:14:44;;;;;;;20.70;13.80;;;2.70;96.30;;;;;;4992818;28;20969;-76
2020/12/10 00:17:11;;;;;;;21.93;13.30;;;2.60;96.30;;;;;;4992915;28;20407;-76
2020/12/10 00:19:36;;;;;;;28.77;13.20;;;2.60;96.30;;;;;;4991594;28;20410;-76
2020/12/10 00:22:02;;;;;;;21.13;13.23;;;2.60;96.30;;;;;;4992491;28;20440;-76
2020/12/10 00:24:28;;;;;;;25.67;14.67;;;2.60;96.30;;;;;;4992889;28;20166;-76
2020/12/10 00:26:53;;;;;;;21.93;13.20;;;2.50;96.30;;;;;;4991698;28;20181;-76
2020/12/10 00:29:18;;;;;;;21.57;13.33;;;2.50;96.30;;;;;;4991581;28;20641;-76
2020/12/10 00:31:46;;;;;;;25.40;15.37;;;2.50;96.30;;;;;;4992411;28;20276;-76
2020/12/10 00:34:11;;;;;;;27.73;14.40;;;2.50;96.30;;;;;;4992508;28;20694;-77
2020/12/10 00:36:37;;;;;;;23.10;15.40;;;2.50;96.30;;;;;;4992730;28;20505;-75
2020/12/10 00:39:04;;;;;;;22.13;14.30;;;2.50;96.30;;;;;;4992698;28;20188;-75
2020/12/10 00:41:29;;;;;;;20.50;13.50;;;2.50;96.30;;;;;;4992487;28;20294;-76
2020/12/10 00:43:55;;;;;;;25.40;15.53;;;2.50;96.30;;;;;;4992554;28;21161;-76
2020/12/10 00:46:20;;;;;;;23.67;14.70;;;2.50;96.30;;;;;;4992688;28;20188;-76
2020/12/10 00:48:46;;;;;;;21.23;15.43;;;2.50;96.30;;;;;;4992669;28;20181;-78
2020/12/10 00:51:11;;;;;;;25.20;15.77;;;2.50;96.30;;;;;;4992438;28;20198;-76
2020/12/10 00:53:37;;;;;;;24.10;14.80;;;2.50;96.30;;;;;;4995178;28;20174;-76
2020/12/10 00:56:02;;;;;;;30.70;16.13;;;2.50;96.30;;;;;;4996410;28;20181;-77
2020/12/10 00:58:27;;;;;;;24.33;14.67;;;2.50;96.30;;;;;;4996238;28;20273;-76
2020/12/10 05:00:47;;;;;;;28.23;16.57;;;2.40;96.30;;;;;;5811033;23;20487;-82
2020/12/10 05:03:15;;;;;;;34.50;17.40;;;2.40;96.30;;;;;;5014674;28;20401;-81
2020/12/10 05:05:40;;;;;;;31.47;16.50;;;2.40;96.30;;;;;;5030358;28;20419;-82
2020/12/10 05:08:06;;;;;;;30.53;16.60;;;2.40;96.30;;;;;;5015715;28;20470;-81
2020/12/10 05:10:45;;;;;;;30.70;16.50;;;2.50;96.30;;;;;;5014525;28;20235;-80
2020/12/10 05:15:40;;;;;;;27.50;15.37;;;2.50;96.30;;;;;;4995022;23;20874;-77
2020/12/10 05:18:09;;;;;;;28.97;15.80;;;2.50;96.30;;;;;;4975282;28;20925;-77
2020/12/10 05:20:44;;;;;;;26.60;16.17;;;2.50;96.30;;;;;;4980395;28;20464;-78
2020/12/10 05:23:11;;;;;;;30.03;16.63;;;2.50;96.30;;;;;;4980236;28;20484;-78
2020/12/10 05:25:52;;;;;;;32.80;20.77;;;2.50;96.30;;;;;;4955507;28;20446;-78
2020/12/10 05:28:19;;;;;;;39.30;26.40;;;2.50;96.30;;;;;;4957610;28;20918;-79
2020/12/10 05:31:00;;;;;;;51.80;33.47;;;2.50;96.30;;;;;;4957408;28;20430;-77
2020/12/10 05:33:26;;;;;;;41.77;24.40;;;2.50;96.30;;;;;;4964970;28;20422;-78
2020/12/10 05:36:03;;;;;;;28.17;18.97;;;2.50;96.30;;;;;;4972857;28;20426;-78
2020/12/10 05:38:29;;;;;;;27.73;16.67;;;2.50;96.30;;;;;;4958114;28;20186;-78
2020/12/10 05:40:54;;;;;;;28.20;17.20;;;2.50;96.30;;;;;;4958085;28;20598;-77
2020/12/10 05:43:22;;;;;;;26.67;15.67;;;2.40;96.30;;;;;;4957026;28;20564;-78
2020/12/10 05:45:52;;;;;;;31.20;16.23;;;2.40;96.30;;;;;;4956814;29;20182;-78
2020/12/10 05:48:19;;;;;;;26.20;16.47;;;2.40;96.30;;;;;;4957677;28;20509;-77
2020/12/10 05:50:46;;;;;;;30.43;19.23;;;2.40;96.30;;;;;;4956196;28;20944;-79
2020/12/10 05:53:12;;;;;;;34.20;20.17;;;2.40;96.30;;;;;;4956935;29;20829;-78
2020/12/10 05:55:42;;;;;;;25.70;16.43;;;2.40;96.30;;;;;;4957336;29;20513;-77
2020/12/10 05:58:08;;;;;;;29.13;18.00;;;2.40;96.30;;;;;;4956870;28;20419;-78
2020/12/10 06:00:35;;;;;;;31.43;18.73;;;2.40;96.30;;;;;;4956272;29;20466;-78
2020/12/10 06:03:02;;;;;;;33.80;18.27;;;2.40;96.30;;;;;;4951688;29;20419;-78
2020/12/10 06:05:28;;;;;;;29.03;17.90;;;2.40;96.30;;;;;;4957368;28;20477;-78
2020/12/10 06:08:08;;;;;;;33.63;19.20;;;2.50;96.30;;;;;;4957606;28;20409;-78
2020/12/10 06:10:36;;;;;;;31.37;18.30;;;2.40;96.30;;;;;;4957378;29;20967;-78
2020/12/10 06:13:02;;;;;;;30.13;16.40;;;2.50;96.30;;;;;;4946142;28;20490;-78
2020/12/10 06:15:29;;;;;;;28.37;17.60;;;2.50;96.30;;;;;;4951307;29;20494;-78
2020/12/10 06:17:59;;;;;;;33.53;20.60;;;2.50;96.30;;;;;;4954548;29;20431;-78
2020/12/10 06:20:32;;;;;;;33.30;19.17;;;2.50;96.30;;;;;;4954586;28;20834;-78
2020/12/10 06:23:28;;;;;;;37.33;23.57;;;2.60;96.30;;;;;;4955249;28;20410;-78
2020/12/10 06:25:55;;;;;;;45.60;27.40;;;2.60;96.30;;;;;;4954803;28;20477;-78
2020/12/10 06:28:22;;;;;;;31.17;18.80;;;2.70;96.30;;;;;;4956216;28;20938;-77
2020/12/10 06:31:05;;;;;;;28.70;16.57;;;2.70;96.30;;;;;;4955757;29;20531;-79
2020/12/10 06:33:37;;;;;;;38.70;19.20;;;2.70;96.30;;;;;;4956136;28;20418;-79
2020/12/10 06:36:27;;;;;;;31.13;18.40;;;2.70;96.30;;;;;;4955676;28;20442;-78
2020/12/10 06:38:55;;;;;;;30.70;18.30;;;2.70;96.30;;;;;;4953215;29;20414;-78
2020/12/10 06:41:21;;;;;;;43.53;21.13;;;2.70;96.30;;;;;;4954616;28;20474;-78
2020/12/10 06:43:47;;;;;;;38.30;20.30;;;2.60;96.30;;;;;;4952094;28;20474;-78
2020/12/10 06:46:13;;;;;;;37.67;20.77;;;2.60;96.30;;;;;;4948570;29;20797;-77
2020/12/10 06:48:47;;;;;;;33.97;15.70;;;2.60;96.30;;;;;;4953999;29;20786;-77
2020/12/10 06:51:20;;;;;;;30.00;16.67;;;2.60;96.30;;;;;;4954466;28;20270;-78
2020/12/10 06:54:00;;;;;;;35.07;17.97;;;2.60;96.30;;;;;;4951849;28;20458;-77
2020/12/10 06:56:27;;;;;;;29.27;17.10;;;2.60;96.30;;;;;;4952756;29;20422;-77
2020/12/10 06:58:55;;;;;;;33.90;16.77;;;2.60;96.30;;;;;;4953973;28;20419;-77
2020/12/10 07:01:32;;;;;;;27.93;16.50;;;2.50;96.30;;;;;;4953929;28;20578;-77
2020/12/10 07:07:09;;;;;;;29.20;15.60;;;2.40;96.30;;;;;;4948022;29;20570;-76
2020/12/10 07:10:01;;;;;;;27.90;15.83;;;2.40;96.30;;;;;;4952832;29;20426;-77
2020/12/10 07:12:29;;;;;;;33.97;18.10;;;2.40;96.30;;;;;;4954039;28;20498;-76
2020/12/10 07:15:15;;;;;;;37.67;19.40;;;2.40;96.30;;;;;;4953858;28;20486;-76
2020/12/10 07:17:47;;;;;;;26.90;18.00;;;2.30;96.30;;;;;;4945422;29;20424;-78
2020/12/10 07:20:13;;;;;;;37.67;20.03;;;2.30;96.30;;;;;;4951043;29;20466;-77
2020/12/10 07:22:38;;;;;;;36.37;19.27;;;2.30;96.30;;;;;;4951351;28;21009;-78
2020/12/10 07:25:04;;;;;;;33.50;18.40;;;2.20;96.30;;;;;;4954628;28;20195;-77
2020/12/10 07:27:30;;;;;;;35.90;19.77;;;2.30;96.30;;;;;;4954396;28;20651;-77
2020/12/10 07:29:55;;;;;;;34.87;19.47;;;2.30;96.30;;;;;;4954520;28;20175;-77
2020/12/10 07:32:21;;;;;;;39.47;19.10;;;2.30;96.30;;;;;;4954135;29;20711;-77
2020/12/10 07:34:46;;;;;;;36.57;19.03;;;2.30;96.30;;;;;;4960265;28;20194;-78
2020/12/10 07:37:14;;;;;;;30.93;19.67;;;2.30;96.30;;;;;;4964469;29;20655;-78
2020/12/10 07:39:39;;;;;;;37.43;20.87;;;2.20;96.30;;;;;;4961829;29;20174;-78
2020/12/10 07:42:06;;;;;;;37.10;20.37;;;2.20;96.30;;;;;;4935634;29;20471;-78
2020/12/10 07:44:33;;;;;;;38.50;20.60;;;2.20;96.30;;;;;;4938680;29;20207;-78
2020/12/10 07:47:00;;;;;;;46.40;21.07;;;2.20;96.30;;;;;;4954046;28;20415;-78
2020/12/10 07:49:32;;;;;;;41.97;20.60;;;2.20;96.30;;;;;;4953006;28;20550;-77
2020/12/10 07:52:08;;;;;;;36.67;19.53;;;2.20;96.30;;;;;;4954078;28;20414;-78
2020/12/10 07:54:49;;;;;;;38.50;20.73;;;2.20;96.30;;;;;;4954774;28;20521;-78
2020/12/10 07:57:25;;;;;;;48.30;21.80;;;2.20;96.30;;;;;;4954191;28;20418;-78
2020/12/10 07:59:57;;;;;;;40.03;20.17;;;2.20;96.30;;;;;;4954404;28;20476;-77
2020/12/10 08:02:46;;;;;;;41.30;20.07;;;2.20;96.30;;;;;;4954328;28;20434;-77
2020/12/10 08:05:16;;;;;;;31.93;18.30;;;2.20;96.30;;;;;;4958445;28;20782;-77
2020/12/10 08:07:47;;;;;;;37.23;19.60;;;2.20;96.30;;;;;;4959237;28;20430;-77
2020/12/10 08:10:19;;;;;;;40.70;20.70;;;2.20;96.30;;;;;;4958433;28;20750;-77
2020/12/10 08:12:45;;;;;;;43.90;23.70;;;2.20;96.30;;;;;;4957579;28;20419;-77
2020/12/10 08:15:20;;;;;;;37.77;20.67;;;2.20;96.30;;;;;;4944835;28;21017;-78
2020/12/10 08:17:45;;;;;;;34.53;20.73;;;2.20;96.30;;;;;;4937717;29;20536;-78
2020/12/10 08:20:11;;;;;;;47.33;21.57;;;2.20;96.30;;;;;;4938296;29;20466;-77
2020/12/10 08:22:36;;;;;;;39.23;21.97;;;2.20;96.30;;;;;;4937951;29;20306;-78
2020/12/10 08:25:02;;;;;;;43.50;22.07;;;2.20;96.30;;;;;;4939939;29;20644;-78
2020/12/10 08:27:33;;;;;;;36.93;20.90;;;2.20;96.30;;;;;;4955145;29;20266;-78
2020/12/10 08:30:07;;;;;;;44.37;22.07;;;2.30;96.30;;;;;;4950025;29;20253;-78
2020/12/10 08:32:32;;;;;;;40.10;21.30;;;2.20;96.30;;;;;;4955141;29;20430;-77
2020/12/10 08:35:08;;;;;;;48.10;24.20;;;2.20;96.30;;;;;;4955299;28;20430;-78
2020/12/10 08:37:41;;;;;;;43.10;23.07;;;2.10;96.30;;;;;;4957775;28;20171;-78
2020/12/10 08:40:08;;;;;;;40.33;23.23;;;2.10;96.30;;;;;;4955004;28;20431;-78
2020/12/10 08:42:34;;;;;;;44.93;24.97;;;2.10;96.30;;;;;;4955003;29;20426;-77
2020/12/10 08:44:59;;;;;;;50.97;23.23;;;2.10;96.30;;;;;;4956526;28;20437;-78
2020/12/10 08:47:26;;;;;;;49.50;23.33;;;2.10;96.30;;;;;;4956778;28;20175;-78
2020/12/10 08:50:23;;;;;;;45.47;23.60;;;2.10;96.30;;;;;;4957308;28;20175;-77
2020/12/10 08:53:02;;;;;;;65.73;26.20;;;2.10;96.30;;;;;;4956240;29;20424;-78
2020/12/10 08:55:34;;;;;;;48.17;23.50;;;2.10;96.30;;;;;;4954836;29;20438;-78
2020/12/10 08:57:59;;;;;;;50.80;24.60;;;2.10;96.30;;;;;;4962386;28;20442;-77
2020/12/10 09:00:25;;;;;;;53.13;25.20;;;2.10;96.30;;;;;;4957991;28;20501;-78
2020/12/10 09:02:50;;;;;;;50.47;25.30;;;2.10;96.30;;;;;;4956925;28;20214;-78
2020/12/10 09:05:16;;;;;;;50.17;24.10;;;2.20;96.30;;;;;;4958681;28;20214;-78
2020/12/10 09:07:42;;;;;;;43.00;25.37;;;2.20;96.30;;;;;;4958475;28;20179;-79
2020/12/10 09:10:07;;;;;;;62.47;25.10;;;2.20;96.30;;;;;;4958510;28;20182;-79
2020/12/10 09:12:33;;;;;;;77.20;24.60;;;2.20;96.30;;;;;;4957811;28;20186;-79
2020/12/10 09:14:58;;;;;;;49.83;24.40;;;2.10;96.30;;;;;;4957243;28;20578;-79
2020/12/10 09:17:24;;;;;;;47.77;24.20;;;2.10;96.30;;;;;;4957631;28;20175;-79
2020/12/10 09:19:49;;;;;;;48.20;27.23;;;2.10;96.30;;;;;;4958132;28;20187;-79
2020/12/10 09:22:15;;;;;;;61.57;28.00;;;2.10;96.30;;;;;;4957585;28;20246;-79
2020/12/10 09:24:40;;;;;;;52.17;27.37;;;2.20;96.30;;;;;;4958563;28;20199;-80
2020/12/10 09:27:09;;;;;;;57.53;30.70;;;2.20;96.30;;;;;;4957871;29;20788;-78
2020/12/10 09:29:35;;;;;;;58.80;30.60;;;2.30;96.30;;;;;;4958317;29;20183;-79
2020/12/10 09:32:02;;;;;;;54.47;28.87;;;2.30;96.30;;;;;;4958801;29;20425;-80
2020/12/10 09:34:27;;;;;;;52.60;26.90;;;2.40;96.30;;;;;;4958771;28;20457;-80
2020/12/10 09:36:53;;;;;;;51.43;24.97;;;2.30;96.30;;;;;;4957480;28;20422;-80
2020/12/10 09:39:18;;;;;;;50.30;25.60;;;2.40;96.30;;;;;;4957938;29;20179;-79
2020/12/10 09:41:44;;;;;;;53.37;26.47;;;2.50;96.30;;;;;;4945295;29;20931;-78
2020/12/10 09:44:10;;;;;;;52.37;24.90;;;2.50;96.30;;;;;;4959052;28;20303;-79
2020/12/10 09:46:36;;;;;;;52.37;27.10;;;2.50;96.30;;;;;;4959201;28;20171;-80
2020/12/10 09:49:01;;;;;;;46.13;24.07;;;2.50;96.30;;;;;;4957510;29;20423;-79
2020/12/10 09:51:33;;;;;;;45.93;25.43;;;2.60;96.30;;;;;;4956463;28;20900;-78
2020/12/10 09:54:16;;;;;;;51.80;22.60;;;2.50;96.30;;;;;;4941796;29;20670;-79
2020/12/10 09:59:22;;;;;;;40.97;23.67;;;2.50;96.30;;;;;;4953478;29;20460;-78
2020/12/10 10:01:47;;;;;;;41.67;23.70;;;2.50;96.30;;;;;;4963777;28;20493;-77
2020/12/10 10:04:13;;;;;;;40.00;23.70;;;2.60;96.30;;;;;;4961314;28;20206;-79
2020/12/10 10:06:41;;;;;;;42.03;22.90;;;2.70;96.30;;;;;;4940528;29;20176;-79
2020/12/10 10:09:06;;;;;;;48.93;25.80;;;2.70;96.30;;;;;;4943947;29;20195;-79
2020/12/10 10:11:32;;;;;;;42.03;23.03;;;2.70;96.30;;;;;;4959149;28;20930;-78
2020/12/10 10:13:57;;;;;;;38.27;21.03;;;2.70;96.30;;;;;;4959362;28;20242;-79
2020/12/10 10:16:27;;;;;;;41.30;21.10;;;2.70;96.30;;;;;;4958215;29;20270;-79
2020/12/10 10:18:53;;;;;;;37.70;20.80;;;2.70;96.30;;;;;;4957022;28;20726;-78
2020/12/10 10:21:19;;;;;;;31.10;19.20;;;2.70;96.30;;;;;;4956803;28;20462;-79
2020/12/10 10:23:44;;;;;;;35.03;20.23;;;2.70;96.30;;;;;;4970940;28;20682;-76
2020/12/10 10:26:10;;;;;;;40.20;19.73;;;2.70;96.30;;;;;;4939246;28;20194;-77
2020/12/10 10:28:35;;;;;;;33.73;19.60;;;2.70;96.30;;;;;;4937259;29;20180;-79
2020/12/10 10:31:01;;;;;;;33.40;18.97;;;2.70;96.30;;;;;;4936787;29;20179;-76
2020/12/10 10:33:26;;;;;;;34.07;20.57;;;2.80;96.30;;;;;;4936280;29;20194;-77
2020/12/10 10:35:53;;;;;;;27.97;18.10;;;2.80;96.30;;;;;;4951270;29;20182;-77
2020/12/10 10:38:20;;;;;;;34.60;19.30;;;2.90;96.30;;;;;;4936513;29;20538;-77
2020/12/10 10:40:46;;;;;;;32.90;19.03;;;2.90;96.30;;;;;;4936541;29;20979;-79
2020/12/10 10:43:11;;;;;;;35.03;19.60;;;2.90;96.30;;;;;;4940991;28;20425;-76
2020/12/10 10:45:37;;;;;;;32.30;17.97;;;2.90;96.30;;;;;;4934676;28;20207;-76
2020/12/10 10:48:02;;;;;;;34.53;18.30;;;2.90;96.30;;;;;;4938999;29;20652;-77
2020/12/10 10:50:28;;;;;;;30.50;17.63;;;2.90;96.30;;;;;;4935148;29;20215;-76
2020/12/10 10:52:53;;;;;;;33.13;17.83;;;2.90;96.30;;;;;;4935890;29;20183;-76
2020/12/10 10:55:19;;;;;;;29.20;17.70;;;2.90;96.30;;;;;;4935986;29;20332;-77
2020/12/10 10:57:44;;;;;;;34.70;18.10;;;2.90;96.30;;;;;;4934883;29;20183;-76
2020/12/10 11:00:10;;;;;;;33.77;17.60;;;2.90;96.30;;;;;;4935828;29;20179;-76
2020/12/10 11:02:35;;;;;;;32.27;18.70;;;2.90;96.30;;;;;;4935740;29;20546;-76
2020/12/10 11:05:01;;;;;;;33.13;19.00;;;2.90;96.30;;;;;;4935620;29;20680;-77
2020/12/10 11:07:26;;;;;;;32.30;16.60;;;2.90;96.30;;;;;;4935808;29;20662;-76
2020/12/10 11:09:52;;;;;;;29.00;17.37;;;2.90;96.30;;;;;;4935514;29;20187;-77
2020/12/10 11:12:17;;;;;;;30.90;17.47;;;2.90;96.30;;;;;;4934975;29;20190;-77
2020/12/10 11:14:44;;;;;;;31.57;17.73;;;2.90;96.30;;;;;;4935690;29;20222;-79
2020/12/10 11:17:09;;;;;;;32.37;18.07;;;2.90;96.30;;;;;;4987396;23;20610;-80
2020/12/10 11:19:35;;;;;;;37.90;19.83;;;2.80;96.30;;;;;;4973921;28;20429;-80
2020/12/10 11:22:01;;;;;;;32.33;18.77;;;2.80;96.30;;;;;;4975537;28;20225;-80
2020/12/10 11:24:26;;;;;;;28.90;17.60;;;2.80;96.30;;;;;;4977284;28;20182;-80
2020/12/10 11:26:52;;;;;;;37.53;19.80;;;2.70;96.30;;;;;;4975989;28;20205;-80
2020/12/10 11:29:18;;;;;;;34.80;18.70;;;2.70;96.30;;;;;;4977012;28;20174;-80
2020/12/10 11:31:44;;;;;;;40.33;20.97;;;2.70;96.30;;;;;;4975364;28;20516;-79
2020/12/10 11:34:09;;;;;;;37.00;20.47;;;2.70;96.30;;;;;;4986787;28;20617;-80
2020/12/10 11:36:34;;;;;;;50.20;23.47;;;2.60;96.30;;;;;;4981596;28;20193;-80
2020/12/10 11:39:00;;;;;;;45.57;24.10;;;2.60;96.30;;;;;;4987287;28;20240;-78
2020/12/10 11:41:25;;;;;;;40.77;20.70;;;2.70;96.30;;;;;;4990705;28;20251;-79
2020/12/10 11:43:51;;;;;;;38.50;19.43;;;2.70;96.30;;;;;;4983572;28;20181;-80
2020/12/10 11:46:17;;;;;;;49.60;22.37;;;2.70;96.30;;;;;;4979743;28;20284;-79
2020/12/10 11:48:42;;;;;;;37.97;20.33;;;2.70;96.30;;;;;;4994894;28;20654;-80
2020/12/10 11:51:08;;;;;;;47.30;21.80;;;2.80;96.30;;;;;;4992694;28;20184;-80
2020/12/10 11:53:34;;;;;;;45.23;22.20;;;2.80;96.30;;;;;;4990757;28;20184;-80
2020/12/10 11:56:01;;;;;;;46.10;21.83;;;2.80;96.30;;;;;;4981952;28;20293;-80
2020/12/10 11:58:27;;;;;;;43.10;22.00;;;2.80;96.30;;;;;;4994202;28;20911;-79
2020/12/10 12:00:52;;;;;;;41.83;22.00;;;2.80;96.30;;;;;;4994685;28;20919;-80
2020/12/10 12:03:18;;;;;;;46.43;24.03;;;2.80;96.30;;;;;;4994239;28;20201;-80
2020/12/10 12:05:43;;;;;;;54.17;23.83;;;2.80;96.30;;;;;;4989977;28;20558;-79
2020/12/10 12:08:09;;;;;;;48.47;25.50;;;2.80;96.30;;;;;;4979426;28;20201;-79
2020/12/10 12:10:34;;;;;;;50.80;21.53;;;2.80;96.30;;;;;;4990582;28;20725;-79
2020/12/10 12:13:01;;;;;;;56.37;24.43;;;2.80;96.30;;;;;;4990165;28;20542;-80
2020/12/10 12:15:27;;;;;;;47.00;24.23;;;2.80;96.30;;;;;;4980325;28;20252;-80
2020/12/10 12:17:54;;;;;;;53.83;25.13;;;2.60;96.30;;;;;;4994205;28;20821;-80
2020/12/10 12:20:23;;;;;;;46.30;24.93;;;2.60;96.30;;;;;;4993681;28;20304;-80
2020/12/10 12:22:49;;;;;;;56.50;27.90;;;2.70;96.30;;;;;;4992618;28;20499;-80
2020/12/10 12:25:14;;;;;;;55.40;26.07;;;2.60;96.30;;;;;;4994228;28;20441;-79
2020/12/10 12:27:40;;;;;;;54.43;26.23;;;2.60;96.30;;;;;;4995245;28;20280;-80
2020/12/10 12:30:05;;;;;;;48.33;25.20;;;2.60;96.30;;;;;;4993815;28;20220;-80
2020/12/10 12:32:31;;;;;;;56.17;24.30;;;2.60;96.30;;;;;;4989863;28;20181;-80
2020/12/10 12:34:56;;;;;;;47.80;25.50;;;2.60;96.30;;;;;;4975095;28;20194;-80
2020/12/10 12:37:22;;;;;;;45.63;25.30;;;2.60;96.30;;;;;;4976428;28;20201;-80
2020/12/10 12:39:47;;;;;;;50.20;25.17;;;2.60;96.30;;;;;;4975998;28;20178;-80
2020/12/10 12:42:13;;;;;;;39.57;22.73;;;2.60;96.30;;;;;;4994017;28;20193;-80
2020/12/10 12:44:38;;;;;;;49.50;24.00;;;2.70;96.30;;;;;;4995970;28;20268;-80
2020/12/10 12:47:07;;;;;;;57.40;25.23;;;2.70;96.30;;;;;;4994402;28;20194;-80
2020/12/10 12:49:34;;;;;;;50.70;24.70;;;2.80;96.30;;;;;;4997843;28;20162;-80
2020/12/10 12:52:00;;;;;;;41.60;22.10;;;2.80;96.30;;;;;;4996406;28;20451;-80
2020/12/10 12:54:26;;;;;;;47.53;24.30;;;2.70;96.30;;;;;;4997591;28;20928;-80
2020/12/10 12:56:51;;;;;;;45.73;24.17;;;2.60;96.30;;;;;;4998522;28;20212;-80
2020/12/10 12:59:17;;;;;;;52.00;25.23;;;2.70;96.30;;;;;;5000309;28;20173;-79
2020/12/10 13:01:43;;;;;;;54.17;25.17;;;2.70;96.30;;;;;;4996256;28;20670;-77
2020/12/10 13:04:13;;;;;;;45.13;25.73;;;2.60;96.30;;;;;;4996593;28;20157;-77
2020/12/10 13:06:43;;;;;;;54.07;27.43;;;2.60;96.30;;;;;;4996249;28;20219;-77
2020/12/10 13:09:08;;;;;;;57.00;26.77;;;2.60;96.30;;;;;;4996760;28;20405;-77
2020/12/10 13:11:34;;;;;;;63.03;29.17;;;2.60;96.30;;;;;;4995864;28;20420;-79
2020/12/10 13:14:00;;;;;;;60.27;29.80;;;2.50;96.30;;;;;;4994699;28;20217;-79
2020/12/10 13:16:25;;;;;;;56.93;26.00;;;2.50;96.30;;;;;;4996687;28;20213;-79
2020/12/10 13:18:51;;;;;;;71.90;29.30;;;2.40;96.30;;;;;;4999242;28;20181;-79
2020/12/10 13:21:29;;;;;;;66.43;28.37;;;2.40;96.30;;;;;;5009730;28;20220;-78
2020/12/10 13:23:55;;;;;;;65.80;29.73;;;2.40;96.30;;;;;;5002500;28;20272;-78
2020/12/10 13:26:25;;;;;;;59.47;29.17;;;2.40;96.30;;;;;;4992535;28;20560;-77
2020/12/10 13:28:51;;;;;;;65.00;28.50;;;2.40;96.30;;;;;;4996504;28;20204;-78
2020/12/10 13:31:33;;;;;;;107.73;30.10;;;2.40;96.30;;;;;;4995832;28;20421;-78
2020/12/10 13:34:00;;;;;;;99.60;29.47;;;2.40;96.30;;;;;;4996172;28;20185;-78
2020/12/10 13:36:29;;;;;;;84.47;31.57;;;2.40;96.30;;;;;;5001447;28;20484;-77
2020/12/10 13:38:57;;;;;;;73.87;29.20;;;2.40;96.30;;;;;;5008481;28;20428;-78
2020/12/10 13:41:24;;;;;;;95.03;31.73;;;2.30;96.30;;;;;;5008949;28;20457;-77
2020/12/10 13:43:51;;;;;;;75.20;30.37;;;2.30;96.30;;;;;;5003902;28;20431;-78
2020/12/10 13:46:17;;;;;;;96.13;29.80;;;2.30;96.30;;;;;;4999247;28;20524;-77
2020/12/10 13:48:43;;;;;;;76.13;30.40;;;2.40;96.30;;;;;;5005939;28;20409;-77
2020/12/10 13:51:14;;;;;;;54.07;27.57;;;2.40;96.30;;;;;;5005178;28;20428;-77
2020/12/10 13:53:40;;;;;;;68.00;28.77;;;2.30;96.30;;;;;;5003752;28;20467;-76
2020/12/10 13:56:05;;;;;;;70.00;30.97;;;2.40;96.30;;;;;;5004045;28;20449;-76
2020/12/10 13:58:31;;;;;;;72.07;27.17;;;2.30;96.30;;;;;;5024629;28;20212;-78
2020/12/10 14:00:56;;;;;;;107.73;30.47;;;2.20;96.30;;;;;;5010705;28;20619;-76
2020/12/10 14:03:22;;;;;;;95.50;29.33;;;2.30;96.30;;;;;;5004517;28;20706;-77
2020/12/10 14:05:47;;;;;;;124.27;31.67;;;2.20;96.30;;;;;;4999817;28;20205;-78
2020/12/10 14:08:14;;;;;;;154.20;29.87;;;2.20;96.30;;;;;;5000703;28;20198;-77
2020/12/10 14:10:41;;;;;;;166.43;30.57;;;2.10;96.30;;;;;;5001351;28;20182;-78
2020/12/10 14:13:06;;;;;;;192.33;31.40;;;2.10;96.30;;;;;;5000431;28;20413;-77
2020/12/10 14:15:32;;;;;;;171.43;29.30;;;2.00;96.30;;;;;;4997776;28;20610;-79
2020/12/10 14:17:57;;;;;;;200.87;30.23;;;2.00;96.30;;;;;;5009310;28;20201;-77
2020/12/10 14:20:24;;;;;;;187.13;32.00;;;2.00;96.30;;;;;;5004042;28;20185;-77
2020/12/10 14:22:49;;;;;;;221.37;32.40;;;2.00;96.30;;;;;;5011972;28;20534;-77
2020/12/10 14:25:15;;;;;;;206.30;32.03;;;1.90;96.30;;;;;;5015778;28;20484;-77
2020/12/10 14:27:41;;;;;;;175.67;33.60;;;1.90;96.30;;;;;;5014165;28;20224;-78
2020/12/10 14:30:07;;;;;;;176.07;30.33;;;1.90;96.30;;;;;;5012796;28;20405;-78
2020/12/10 14:32:32;;;;;;;178.47;29.80;;;1.90;96.30;;;;;;5013517;28;20174;-77
2020/12/10 14:34:58;;;;;;;164.00;31.37;;;1.80;96.30;;;;;;5004907;28;20245;-77
2020/12/10 14:37:23;;;;;;;246.30;31.40;;;1.80;96.30;;;;;;5001179;28;20198;-78
2020/12/10 14:39:49;;;;;;;219.60;30.90;;;1.80;96.30;;;;;;4982593;28;20245;-77
2020/12/10 14:42:14;;;;;;;289.60;31.17;;;1.80;96.30;;;;;;4999009;28;20273;-77
2020/12/10 14:44:40;;;;;;;205.10;31.10;;;1.80;96.30;;;;;;4998370;28;20204;-77
2020/12/10 14:47:05;;;;;;;196.37;34.03;;;1.80;96.30;;;;;;5001171;28;20194;-77
2020/12/10 14:49:31;;;;;;;233.20;32.20;;;1.80;96.30;;;;;;5000607;28;20232;-77
2020/12/10 14:51:57;;;;;;;179.93;30.17;;;1.70;96.30;;;;;;4991949;28;20181;-76
2020/12/10 14:54:22;;;;;;;190.40;32.17;;;1.70;96.30;;;;;;4997660;28;20182;-77
2020/12/10 14:56:48;;;;;;;152.77;32.90;;;1.60;96.30;;;;;;4998467;28;20204;-77
2020/12/10 14:59:14;;;;;;;240.90;31.87;;;1.60;96.30;;;;;;4998715;28;20225;-77
2020/12/10 15:01:39;;;;;;;198.00;31.53;;;1.60;96.30;;;;;;5001808;28;20255;-79
2020/12/10 15:04:05;;;;;;;201.67;35.17;;;1.50;96.30;;;;;;5001953;28;20405;-77
2020/12/10 15:06:30;;;;;;;172.07;34.00;;;1.60;96.30;;;;;;5000181;28;20749;-77
2020/12/10 15:08:56;;;;;;;290.33;34.77;;;1.50;96.30;;;;;;4998431;28;20181;-78
2020/12/10 15:11:24;;;;;;;246.57;35.93;;;1.50;96.30;;;;;;5008179;28;20184;-77
2020/12/10 15:13:50;;;;;;;116.53;33.73;;;1.50;96.30;;;;;;5004829;28;20257;-76
2020/12/10 15:16:18;;;;;;;179.80;34.70;;;1.50;96.30;;;;;;5005049;28;20546;-76
2020/12/10 15:18:43;;;;;;;111.90;33.23;;;1.50;96.30;;;;;;5004121;28;20472;-77
2020/12/10 15:21:20;;;;;;;199.57;35.23;;;1.40;96.30;;;;;;5003346;28;20467;-76
2020/12/10 15:23:46;;;;;;;163.40;32.37;;;1.40;96.30;;;;;;4996705;28;20165;-77
2020/12/10 15:26:13;;;;;;;182.70;33.70;;;1.40;96.30;;;;;;4997254;28;20443;-77
2020/12/10 15:28:39;;;;;;;247.27;33.77;;;1.30;96.30;;;;;;5002191;28;20412;-78
2020/12/10 15:31:05;;;;;;;299.10;34.60;;;1.20;96.30;;;;;;5000079;28;20413;-78
2020/12/10 15:33:31;;;;;;;267.47;33.67;;;1.30;96.30;;;;;;5005119;28;20423;-77
2020/12/10 15:35:57;;;;;;;223.73;33.57;;;1.30;96.30;;;;;;5010097;28;20437;-78
2020/12/10 15:38:22;;;;;;;235.53;33.23;;;1.30;96.30;;;;;;5005609;28;20181;-78
2020/12/10 15:40:49;;;;;;;263.47;33.30;;;1.20;96.30;;;;;;5009001;28;20205;-78
2020/12/10 15:43:14;;;;;;;217.70;32.80;;;1.20;96.30;;;;;;5003943;28;20185;-76
2020/12/10 15:45:40;;;;;;;252.27;34.10;;;1.20;96.30;;;;;;5004128;28;20408;-77
2020/12/10 15:48:06;;;;;;;207.97;32.47;;;1.20;96.30;;;;;;5004692;28;20170;-77
2020/12/10 15:50:31;;;;;;;248.90;35.87;;;1.20;96.30;;;;;;5000466;28;20963;-78
2020/12/10 15:52:57;;;;;;;475.43;36.87;;;1.20;96.30;;;;;;5003148;28;20185;-77
2020/12/10 15:55:22;;;;;;;440.37;37.20;;;1.20;96.30;;;;;;5001216;28;20246;-78
2020/12/10 15:57:48;;;;;;;383.43;34.33;;;1.20;96.30;;;;;;5005859;28;20189;-77
2020/12/10 16:00:13;;;;;;;255.33;32.60;;;1.10;96.30;;;;;;5007912;28;20193;-77
2020/12/10 16:02:39;;;;;;;248.00;33.50;;;1.10;96.30;;;;;;5005486;28;20182;-78
2020/12/10 16:05:05;;;;;;;339.63;35.63;;;1.10;96.30;;;;;;5002389;28;20179;-78
2020/12/10 16:07:31;;;;;;;417.90;35.63;;;1.10;96.30;;;;;;5002720;28;20197;-77
2020/12/10 16:09:57;;;;;;;286.67;35.97;;;1.10;96.30;;;;;;5005028;28;20180;-77
2020/12/10 16:12:22;;;;;;;387.73;36.03;;;1.10;96.30;;;;;;5004108;28;20413;-78
2020/12/10 16:14:48;;;;;;;318.20;33.40;;;1.10;96.30;;;;;;5005915;28;20185;-78
2020/12/10 16:17:13;;;;;;;382.23;34.87;;;1.10;96.30;;;;;;5007280;28;20252;-77
2020/12/10 16:19:39;;;;;;;218.17;35.17;;;1.10;96.30;;;;;;5000789;28;20224;-78
2020/12/10 16:22:05;;;;;;;347.23;36.67;;;1.00;96.30;;;;;;4999662;28;20264;-77
2020/12/10 16:24:31;;;;;;;179.97;33.37;;;1.10;96.30;;;;;;5010183;28;20165;-78
2020/12/10 16:26:56;;;;;;;206.03;33.93;;;1.10;96.30;;;;;;5008135;28;20684;-77
2020/12/10 16:29:22;;;;;;;248.13;36.20;;;1.10;96.30;;;;;;5006286;28;20881;-77
2020/12/10 16:31:50;;;;;;;407.57;35.03;;;1.10;96.30;;;;;;5001926;28;20220;-77
2020/12/10 16:34:16;;;;;;;442.97;38.50;;;1.10;96.30;;;;;;4996607;28;20196;-78
2020/12/10 16:36:42;;;;;;;310.30;35.40;;;1.10;96.30;;;;;;4987693;28;20445;-77
2020/12/10 16:39:07;;;;;;;471.73;37.10;;;1.10;96.30;;;;;;4987180;28;20814;-77
2020/12/10 16:41:33;;;;;;;249.37;32.43;;;1.10;96.30;;;;;;5000450;28;20228;-77
2020/12/10 16:44:00;;;;;;;326.13;33.47;;;1.10;96.30;;;;;;5009889;28;20178;-78